Terminal Aerodrome Forecast
Issued by NWS

Home | Current Version | Previous Version | Text Only | Print | Product List | Glossary On
Versions: 1 2 3 4 5 6 7 8 9 10 11 12 13 14
000
FTUS44 KMOB 251127
TAFBFM
TAF
KBFM 251127Z 2512/2612 02004KT P6SM FEW007
     FM251300 04003KT P6SM FEW015 SCT250
     FM251800 09010KT P6SM SCT250
     FM260300 08006KT P6SM FEW250=

USA.gov is the U.S. government's official web portal to all federal, state and local government web resources and services.